Time;durP1;ratioP1;P1;durP2;ratioP2;P2;SDS_P1;SDS_P2;PMS_P1;PMS_P2;Temp;Humidity;BMP_temperature;BMP_pressure;BME280_temperature;BME280_humidity;BME280_pressure;Samples;Min_cycle;Max_cycle;Signal;HPM_P1;HPM_P2
2023/02/03 00:01:23;;;;;;;4.60;2.30;;;;;;;0.22;84.62;100350.63;218321;1259;140823;-68
2023/02/03 00:06:31;;;;;;;4.90;2.90;;;;;;;0.19;84.69;100344.80;218588;1259;139956;-67
2023/02/03 00:11:36;;;;;;;9.10;2.50;;;;;;;0.21;84.46;100350.71;218299;1256;139653;-69
2023/02/03 00:16:41;;;;;;;11.60;2.30;;;;;;;0.19;84.57;100359.17;219934;1259;140359;-69
2023/02/03 00:21:45;;;;;;;4.30;1.70;;;;;;;0.17;84.08;100365.35;220299;1257;139774;-67
2023/02/03 00:26:49;;;;;;;2.60;1.50;;;;;;;0.16;83.79;100359.80;219368;1257;140275;-68
2023/02/03 00:31:54;;;;;;;6.80;3.70;;;;;;;0.15;83.88;100357.08;219712;1256;140447;-67
2023/02/03 00:36:59;;;;;;;3.70;1.10;;;;;;;0.17;83.76;100359.58;219753;1256;140710;-68
2023/02/03 00:42:04;;;;;;;1.90;1.30;;;;;;;0.19;83.23;100354.23;220032;1256;140495;-68
2023/02/03 00:47:10;;;;;;;3.10;1.60;;;;;;;0.21;83.10;100351.79;220284;1257;139563;-68
2023/02/03 00:52:15;;;;;;;2.10;1.90;;;;;;;0.21;82.81;100355.50;219370;1256;140244;-68
2023/02/03 00:57:21;;;;;;;2.30;2.10;;;;;;;0.18;82.49;100348.25;218767;1260;140973;-67
2023/02/03 01:02:25;;;;;;;4.00;1.90;;;;;;;0.19;82.68;100345.71;218785;1257;140131;-66
2023/02/03 01:07:32;;;;;;;2.70;1.20;;;;;;;0.18;82.59;100340.06;218508;1257;140121;-68
2023/02/03 01:12:36;;;;;;;2.10;1.20;;;;;;;0.16;82.55;100338.44;217587;1259;141338;-67
2023/02/03 01:17:41;;;;;;;4.00;2.00;;;;;;;0.11;82.22;100333.41;218605;1257;141534;-67
2023/02/03 01:22:47;;;;;;;7.40;3.20;;;;;;;0.05;82.32;100332.26;218923;1256;140633;-66
2023/02/03 01:27:52;;;;;;;4.30;1.90;;;;;;;0.04;82.28;100337.42;217806;1257;139498;-67
2023/02/03 01:32:57;;;;;;;2.70;1.50;;;;;;;0.03;82.00;100335.77;217028;1261;139925;-67
2023/02/03 01:38:02;;;;;;;8.30;5.30;;;;;;;-0.01;82.21;100326.42;217986;1257;140364;-67
2023/02/03 01:43:09;;;;;;;13.80;6.30;;;;;;;-0.03;82.12;100320.45;217976;1260;140554;-68
2023/02/03 01:48:13;;;;;;;3.20;2.20;;;;;;;-0.04;82.28;100319.49;217529;1257;140450;-68
2023/02/03 01:53:17;;;;;;;6.60;4.60;;;;;;;-0.10;81.92;100319.05;218167;1260;159572;-69
2023/02/03 01:58:26;;;;;;;5.60;2.80;;;;;;;-0.17;82.12;100312.77;218467;1257;140218;-71
2023/02/03 02:03:37;;;;;;;5.20;2.10;;;;;;;-0.21;82.37;100310.56;217569;1256;238108;-67
2023/02/03 02:08:47;;;;;;;4.20;1.50;;;;;;;-0.20;82.35;100306.41;219373;1260;140372;-65
2023/02/03 02:13:58;;;;;;;4.30;2.20;;;;;;;-0.20;82.32;100300.48;218453;1260;140327;-67
2023/02/03 02:19:34;;;;;;;3.80;2.60;;;;;;;-0.24;82.48;100285.05;219035;1257;141165;-67
2023/02/03 02:25:08;;;;;;;5.40;3.10;;;;;;;-0.27;82.36;100264.70;219364;1258;140284;-68
2023/02/03 02:30:39;;;;;;;4.10;1.50;;;;;;;-0.28;82.34;100255.73;220330;1257;140997;-71
2023/02/03 02:36:08;;;;;;;2.90;2.10;;;;;;;-0.30;82.40;100244.90;220236;1256;141460;-67
2023/02/03 02:41:23;;;;;;;3.90;2.50;;;;;;;-0.32;82.16;100249.11;220332;1257;141325;-68
2023/02/03 02:46:34;;;;;;;7.10;2.10;;;;;;;-0.37;82.46;100256.29;220358;1257;140302;-70
2023/02/03 02:51:43;;;;;;;3.80;2.50;;;;;;;-0.41;82.41;100264.51;218394;1260;139872;-66
2023/02/03 02:56:55;;;;;;;6.50;4.20;;;;;;;-0.43;82.35;100269.04;218162;1257;140720;-69
2023/02/03 03:02:00;;;;;;;4.80;3.10;;;;;;;-0.45;82.42;100255.80;217809;1257;140525;-71
2023/02/03 03:07:12;;;;;;;8.10;5.20;;;;;;;-0.48;82.70;100251.63;217960;1257;140960;-70
2023/02/03 03:12:25;;;;;;;10.20;4.00;;;;;;;-0.54;82.74;100237.86;218397;1260;139553;-68
2023/02/03 03:17:36;;;;;;;4.90;3.70;;;;;;;-0.59;82.95;100221.39;218445;1257;140404;-67
2023/02/03 03:22:47;;;;;;;7.40;4.20;;;;;;;-0.62;82.95;100208.98;217891;1260;140421;-66
2023/02/03 03:27:57;;;;;;;7.30;4.30;;;;;;;-0.64;83.10;100206.21;218074;1260;140125;-65
2023/02/03 03:33:04;;;;;;;9.30;7.10;;;;;;;-0.67;83.26;100202.14;218181;1257;140510;-65
2023/02/03 03:38:21;;;;;;;10.40;4.80;;;;;;;-0.68;82.96;100200.84;218879;1257;139676;-66
2023/02/03 03:43:31;;;;;;;9.50;5.90;;;;;;;-0.70;83.18;100200.56;217727;1257;140425;-67
2023/02/03 03:49:04;;;;;;;9.20;5.90;;;;;;;-0.76;83.10;100203.94;218115;1257;143735;-67
2023/02/03 03:54:13;;;;;;;16.90;8.10;;;;;;;-0.80;83.40;100201.15;217955;1260;140906;-66
2023/02/03 03:59:21;;;;;;;10.60;7.50;;;;;;;-0.82;83.37;100196.27;218098;1257;139879;-66
2023/02/03 04:04:27;;;;;;;46.00;9.00;;;;;;;-0.85;83.36;100196.23;217863;1256;151644;-66
2023/02/03 04:09:35;;;;;;;12.70;6.90;;;;;;;-0.89;83.67;100200.50;218819;1257;139872;-66
2023/02/03 04:14:39;;;;;;;10.60;6.40;;;;;;;-0.92;83.53;100199.88;219431;1257;141645;-66
2023/02/03 04:19:43;;;;;;;11.60;7.50;;;;;;;-0.94;83.41;100189.98;219023;1257;140517;-67
2023/02/03 04:24:47;;;;;;;8.60;4.70;;;;;;;-0.92;83.57;100180.23;219393;1257;140219;-67
2023/02/03 04:29:52;;;;;;;8.70;6.30;;;;;;;-0.93;83.63;100177.30;219877;1260;140156;-67
2023/02/03 04:34:57;;;;;;;11.50;6.90;;;;;;;-0.92;83.78;100176.59;220375;1257;141025;-67
2023/02/03 04:40:03;;;;;;;11.30;6.30;;;;;;;-0.91;83.71;100163.33;218919;1258;140527;-67
2023/02/03 04:45:10;;;;;;;;;;;;;;;-0.92;83.58;100162.81;219085;1260;140243;-67
2023/02/03 04:50:15;;;;;;;8.70;6.20;;;;;;;-0.94;83.70;100162.81;218224;1260;126458;-67
2023/02/03 04:55:18;;;;;;;13.30;7.30;;;;;;;-0.92;83.87;100151.98;218985;1260;140951;-65
2023/02/03 05:00:21;;;;;;;9.30;5.30;;;;;;;-0.93;83.88;100148.91;219016;1260;141122;-67
2023/02/03 05:05:26;;;;;;;8.10;5.10;;;;;;;-0.94;84.14;100136.23;217738;1262;222120;-66
2023/02/03 05:10:31;;;;;;;14.90;5.50;;;;;;;-0.94;83.69;100132.45;218995;1260;141637;-65
2023/02/03 05:15:36;;;;;;;12.40;5.60;;;;;;;-0.96;83.96;100122.55;217596;1260;247569;-68
2023/02/03 05:20:40;;;;;;;10.10;6.20;;;;;;;-0.96;84.04;100112.77;218188;1260;140046;-67
2023/02/03 05:25:44;;;;;;;10.30;5.90;;;;;;;-0.98;84.31;100104.21;217981;1257;997608;-68
2023/02/03 05:30:48;;;;;;;9.70;5.20;;;;;;;-1.00;83.93;100086.66;217899;1256;140688;-66
2023/02/03 05:35:52;;;;;;;12.30;6.70;;;;;;;-1.02;83.99;100073.54;217960;1260;139174;-66
2023/02/03 05:46:21;;;;;;;11.00;6.40;;;;;;;-1.06;84.24;100061.70;217771;1258;140767;-66
2023/02/03 05:51:28;;;;;;;7.90;4.80;;;;;;;-1.08;84.27;100054.45;219051;1258;139637;-67
2023/02/03 05:56:32;;;;;;;7.10;4.90;;;;;;;-1.11;84.12;100049.88;218425;1257;228292;-67
2023/02/03 06:01:37;;;;;;;9.50;5.80;;;;;;;-1.16;84.12;100044.43;217763;1257;140247;-67
2023/02/03 06:06:41;;;;;;;8.40;3.10;;;;;;;-1.17;84.20;100041.06;218702;1258;140158;-67
2023/02/03 06:11:46;;;;;;;8.30;5.60;;;;;;;-1.20;84.25;100034.73;218576;1257;140387;-67
2023/02/03 06:16:51;;;;;;;8.70;4.40;;;;;;;-1.22;84.23;100035.84;219577;1257;141329;-66
2023/02/03 06:21:56;;;;;;;9.60;4.70;;;;;;;-1.22;84.21;100032.86;219274;1258;140488;-67
2023/02/03 06:27:01;;;;;;;10.60;5.00;;;;;;;-1.19;84.52;100022.08;220380;1257;140242;-67
2023/02/03 06:32:06;;;;;;;11.70;5.10;;;;;;;-1.14;84.49;100006.00;219962;1260;141974;-67
2023/02/03 06:37:10;;;;;;;6.10;4.60;;;;;;;-1.12;84.24;99989.58;220415;1258;141114;-66
2023/02/03 06:42:17;;;;;;;8.70;6.60;;;;;;;-1.11;84.42;99978.30;220397;1257;140433;-66
2023/02/03 06:47:23;;;;;;;13.30;7.80;;;;;;;-1.09;84.14;99970.27;219408;1257;139885;-66
2023/02/03 06:52:31;;;;;;;10.00;6.00;;;;;;;-1.06;84.22;99963.82;218642;1256;139868;-66
2023/02/03 06:57:43;;;;;;;13.00;7.40;;;;;;;-1.01;84.26;99953.42;219811;1257;139897;-66
2023/02/03 07:02:57;;;;;;;15.30;7.00;;;;;;;-0.98;84.26;99943.59;217960;1257;141811;-65
2023/02/03 07:08:03;;;;;;;11.20;5.50;;;;;;;-0.95;84.43;99937.88;218786;1256;230915;-66
2023/02/03 07:13:08;;;;;;;7.60;5.50;;;;;;;-0.96;84.32;99923.84;218168;1257;140715;-66
2023/02/03 07:18:13;;;;;;;8.40;5.60;;;;;;;-0.94;84.34;99913.33;218754;1260;139287;-66
2023/02/03 07:23:35;;;;;;;7.70;4.60;;;;;;;-0.88;84.23;99911.69;217984;1258;140313;-66
2023/02/03 07:28:39;;;;;;;9.90;4.50;;;;;;;-0.85;84.16;99899.77;217868;1257;139968;-67
2023/02/03 07:33:45;;;;;;;8.40;4.50;;;;;;;-0.84;84.41;99888.56;218065;1258;139543;-66
2023/02/03 07:38:49;;;;;;;8.60;5.30;;;;;;;-0.78;84.62;99878.11;218029;1256;140396;-65
2023/02/03 07:43:55;;;;;;;9.00;4.40;;;;;;;-0.72;84.36;99866.50;217793;1260;139765;-66
2023/02/03 07:49:03;;;;;;;7.10;4.90;;;;;;;-0.70;84.47;99855.54;218351;1258;139716;-66
2023/02/03 07:54:08;;;;;;;6.20;4.60;;;;;;;-0.66;84.39;99846.59;218111;1257;140552;-65
2023/02/03 07:59:16;;;;;;;8.20;6.20;;;;;;;-0.59;84.79;99834.45;218177;1258;140099;-66
2023/02/03 08:04:22;;;;;;;7.10;3.70;;;;;;;-0.52;84.68;99813.98;218020;1257;140487;-66
2023/02/03 08:09:27;;;;;;;7.60;4.30;;;;;;;-0.50;84.25;99795.48;217922;1257;140024;-66
2023/02/03 08:14:33;;;;;;;12.30;4.70;;;;;;;-0.46;84.02;99783.67;220403;1257;140620;-66
2023/02/03 08:19:38;;;;;;;6.70;4.60;;;;;;;-0.40;84.23;99772.06;218345;1260;141542;-66
2023/02/03 08:24:44;;;;;;;6.00;4.20;;;;;;;-0.39;84.13;99757.79;220478;1260;139648;-66
2023/02/03 08:29:50;;;;;;;5.00;3.50;;;;;;;-0.34;84.07;99755.67;219409;1256;139924;-67
2023/02/03 08:34:54;;;;;;;8.50;3.60;;;;;;;-0.26;84.28;99739.27;220197;1256;140667;-67
2023/02/03 08:39:59;;;;;;;5.70;4.00;;;;;;;-0.19;83.91;99724.86;218092;1260;139496;-67
2023/02/03 08:45:04;;;;;;;7.10;3.30;;;;;;;-0.13;83.66;99721.66;218956;1256;140030;-66
2023/02/03 08:50:10;;;;;;;6.40;3.10;;;;;;;-0.05;83.51;99703.66;218006;1258;140233;-67
2023/02/03 08:55:15;;;;;;;8.20;4.40;;;;;;;0.04;83.76;99691.49;217796;1258;140409;-66
2023/02/03 09:00:19;;;;;;;5.10;3.60;;;;;;;0.13;83.84;99685.58;218262;1256;140123;-66
2023/02/03 09:05:23;;;;;;;4.50;3.30;;;;;;;0.22;83.63;99689.07;217962;1257;139389;-68
2023/02/03 09:10:26;;;;;;;5.50;3.60;;;;;;;0.27;83.26;99678.27;219066;1256;142116;-66
2023/02/03 09:15:31;;;;;;;8.50;4.50;;;;;;;0.31;83.30;99669.52;217678;1256;139858;-66
2023/02/03 09:20:36;;;;;;;3.70;2.50;;;;;;;0.36;83.02;99649.11;218227;1257;139815;-64
2023/02/03 09:25:42;;;;;;;4.00;2.40;;;;;;;0.39;82.75;99631.30;218198;1256;139632;-64
2023/02/03 09:30:52;;;;;;;12.70;5.00;;;;;;;0.46;82.87;99623.02;218316;1257;139761;-65
2023/02/03 09:35:58;;;;;;;9.70;5.40;;;;;;;0.58;83.04;99612.33;218602;1256;140142;-66
2023/02/03 09:41:09;;;;;;;5.30;4.00;;;;;;;0.78;83.00;99596.29;218475;1256;230553;-66
2023/02/03 09:46:24;;;;;;;5.80;3.30;;;;;;;0.92;82.99;99581.48;218640;1259;139646;-66
2023/02/03 09:51:45;;;;;;;3.90;2.90;;;;;;;0.92;82.85;99568.84;218453;1257;140390;-64
2023/02/03 09:56:54;;;;;;;8.40;3.90;;;;;;;0.83;82.55;99550.04;217927;1259;140005;-66
2023/02/03 10:02:08;;;;;;;8.20;5.40;;;;;;;0.73;82.80;99541.74;218747;1257;141016;-65
2023/02/03 10:07:28;;;;;;;9.60;4.20;;;;;;;0.67;83.21;99519.33;218879;1256;140568;-65
2023/02/03 10:12:42;;;;;;;7.60;4.00;;;;;;;0.58;83.31;99499.67;220209;1255;139833;-66
2023/02/03 10:17:56;;;;;;;4.50;3.30;;;;;;;0.55;83.72;99485.93;219868;1256;140179;-68
2023/02/03 10:23:06;;;;;;;6.30;4.10;;;;;;;0.49;83.44;99460.58;218404;1256;140434;-69
2023/02/03 10:28:19;;;;;;;6.30;4.10;;;;;;;0.41;83.54;99441.75;220245;1256;161863;-68
2023/02/03 10:33:29;;;;;;;8.10;4.90;;;;;;;0.33;83.82;99417.13;217673;1257;139982;-69
2023/02/03 10:38:53;;;;;;;5.60;3.10;;;;;;;0.28;84.09;99393.11;217554;1256;141118;-68
2023/02/03 10:44:04;;;;;;;5.60;3.60;;;;;;;0.23;83.83;99374.98;217689;1256;140080;-67
2023/02/03 10:49:12;;;;;;;5.30;3.80;;;;;;;0.20;84.71;99352.44;217614;1257;140344;-67
2023/02/03 10:54:33;;;;;;;;;;;;;;;0.14;84.96;99315.56;217837;1259;140129;-67
2023/02/03 10:59:43;;;;;;;8.80;4.20;;;;;;;0.05;85.55;99297.02;218522;1256;125991;-68
2023/02/03 11:05:07;;;;;;;4.90;2.90;;;;;;;-0.00;85.57;99269.20;218118;1257;139344;-68
2023/02/03 11:10:34;;;;;;;7.20;4.00;;;;;;;-0.06;85.37;99242.95;218034;1259;139819;-66
2023/02/03 11:16:02;;;;;;;6.60;4.20;;;;;;;-0.12;86.03;99212.34;217943;1257;141069;-65
2023/02/03 11:21:19;;;;;;;;;;;;;;;-0.13;86.91;99200.27;218634;1256;140902;-67
2023/02/03 11:26:29;;;;;;;6.00;3.80;;;;;;;-0.11;87.14;99187.97;218297;1256;126428;-65
2023/02/03 11:31:35;;;;;;;7.10;4.20;;;;;;;-0.03;86.79;99165.52;219575;1256;140467;-66
2023/02/03 11:36:41;;;;;;;7.90;5.00;;;;;;;0.01;86.90;99146.17;218231;1257;140015;-66
2023/02/03 11:41:47;;;;;;;5.50;3.40;;;;;;;-0.01;86.81;99127.05;217853;1256;140626;-65
2023/02/03 11:46:57;;;;;;;8.30;4.40;;;;;;;-0.08;87.53;99112.20;219706;1257;140643;-67
2023/02/03 11:52:40;;;;;;;7.70;3.70;;;;;;;-0.22;88.12;99094.80;219314;1257;140886;-67
2023/02/03 11:58:10;;;;;;;5.30;2.80;;;;;;;-0.24;88.41;99080.34;219758;1256;140819;-66
2023/02/03 12:03:17;;;;;;;3.80;3.10;;;;;;;-0.27;87.83;99056.16;220568;1256;140577;-67
2023/02/03 12:08:34;;;;;;;3.90;2.90;;;;;;;-0.29;87.94;99037.68;220742;1256;140678;-67
2023/02/03 12:13:46;;;;;;;3.80;2.90;;;;;;;-0.26;88.13;99017.61;220631;1255;140295;-69
2023/02/03 12:18:58;;;;;;;6.80;2.70;;;;;;;-0.30;88.93;98997.38;219327;1256;142076;-68
2023/02/03 12:24:55;;;;;;;4.80;3.00;;;;;;;-0.28;89.21;98977.85;218396;1255;140353;-69
2023/02/03 12:30:10;;;;;;;6.30;5.50;;;;;;;-0.23;89.20;98957.14;217632;1256;141117;-70
2023/02/03 12:35:24;;;;;;;2.60;1.70;;;;;;;-0.19;88.92;98938.92;217970;1256;140467;-68
2023/02/03 12:40:37;;;;;;;3.90;2.80;;;;;;;-0.30;89.62;98926.89;217877;1258;140232;-69
2023/02/03 12:45:54;;;;;;;2.90;2.70;;;;;;;-0.36;89.71;98912.27;218139;1256;140968;-68
2023/02/03 12:51:06;;;;;;;4.70;3.10;;;;;;;-0.41;89.86;98886.86;218079;1257;139647;-67
2023/02/03 12:56:39;;;;;;;4.30;3.70;;;;;;;-0.46;89.91;98873.86;217958;1257;139566;-65
2023/02/03 13:02:17;;;;;;;5.20;3.70;;;;;;;-0.46;89.81;98852.63;218610;1256;140391;-67
2023/02/03 13:07:39;;;;;;;4.00;3.60;;;;;;;-0.45;90.05;98826.23;218461;1259;140493;-66
2023/02/03 13:12:52;;;;;;;4.00;2.80;;;;;;;-0.44;90.34;98812.51;218669;1256;244807;-66
2023/02/03 13:18:30;;;;;;;4.80;3.40;;;;;;;-0.36;90.43;98790.27;218221;1256;139623;-66
2023/02/03 13:23:35;;;;;;;6.90;4.60;;;;;;;-0.32;90.27;98768.46;218720;1256;140354;-66
2023/02/03 13:28:51;;;;;;;8.10;5.00;;;;;;;-0.35;90.31;98746.81;218474;1256;139691;-68
2023/02/03 13:34:17;;;;;;;4.80;4.30;;;;;;;-0.33;91.12;98730.04;218648;1256;139374;-68
2023/02/03 13:39:25;;;;;;;5.90;4.30;;;;;;;-0.25;91.60;98714.43;218585;1256;139889;-68
2023/02/03 13:44:29;;;;;;;;;;;;;;;-0.15;91.17;98700.02;217595;1258;139406;-65
2023/02/03 13:49:36;;;;;;;4.20;3.80;;;;;;;-0.10;91.03;98684.95;219527;1256;126454;-66
2023/02/03 13:54:43;;;;;;;6.40;4.20;;;;;;;0.01;91.21;98684.08;217844;1260;139186;-69
2023/02/03 13:59:49;;;;;;;8.40;5.60;;;;;;;0.08;90.72;98664.59;219821;1256;140497;-68
2023/02/03 14:04:57;;;;;;;3.90;3.30;;;;;;;0.08;90.95;98660.60;218341;1256;139314;-70
2023/02/03 14:10:12;;;;;;;5.90;4.10;;;;;;;0.08;91.14;98654.16;219891;1256;139313;-69
2023/02/03 14:15:30;;;;;;;4.80;4.30;;;;;;;0.12;91.08;98645.89;218587;1256;140236;-70
2023/02/03 14:20:40;;;;;;;4.10;3.70;;;;;;;0.18;91.16;98631.42;219155;1256;139398;-70
2023/02/03 14:25:55;;;;;;;3.80;3.40;;;;;;;0.25;91.05;98621.71;218785;1256;139549;-68
2023/02/03 14:31:04;;;;;;;6.50;4.60;;;;;;;0.27;90.57;98618.83;218057;1256;139454;-69
2023/02/03 14:36:25;;;;;;;3.20;2.70;;;;;;;0.29;90.69;98627.86;217581;1256;139170;-69
2023/02/03 14:41:39;;;;;;;4.70;2.50;;;;;;;0.36;90.60;98630.80;217811;1257;139576;-66
2023/02/03 14:47:01;;;;;;;4.80;4.10;;;;;;;0.37;90.80;98602.42;218179;1257;139514;-66
2023/02/03 14:52:21;;;;;;;4.10;3.70;;;;;;;0.39;90.93;98601.66;218515;1256;139704;-65
2023/02/03 14:57:29;;;;;;;5.20;4.10;;;;;;;0.47;91.18;98607.83;217883;1257;139161;-67
2023/02/03 15:02:34;;;;;;;4.70;4.30;;;;;;;0.53;91.15;98608.41;217403;1259;139420;-68
2023/02/03 15:07:45;;;;;;;5.80;4.20;;;;;;;0.58;91.32;98605.57;217618;1257;139424;-68
2023/02/03 15:12:57;;;;;;;10.30;5.10;;;;;;;0.62;91.09;98604.15;217547;1260;139760;-66
2023/02/03 15:18:21;;;;;;;8.10;6.60;;;;;;;0.70;91.45;98603.92;217927;1257;139214;-69
2023/02/03 15:23:40;;;;;;;5.80;5.20;;;;;;;0.77;91.04;98595.80;218440;1260;139240;-66
2023/02/03 15:29:17;;;;;;;6.50;5.50;;;;;;;0.85;91.47;98598.80;218124;1256;139841;-68
2023/02/03 15:34:28;;;;;;;14.60;12.50;;;;;;;0.91;91.04;98609.02;217825;1260;140733;-73
2023/02/03 15:39:39;;;;;;;9.70;7.70;;;;;;;0.94;91.39;98604.52;218704;1257;141376;-69
2023/02/03 15:44:56;;;;;;;11.40;7.10;;;;;;;0.97;91.16;98608.45;218087;1256;139870;-70
2023/02/03 15:50:05;;;;;;;;;;;;;;;1.01;91.16;98613.36;219644;1256;141062;-69
2023/02/03 15:55:43;;;;;;;10.70;7.60;;;;;;;1.03;91.25;98615.95;219209;1257;235394;-71
2023/02/03 16:00:51;;;;;;;;;;;;;;;1.05;91.48;98621.02;217700;1257;140095;-71
2023/02/03 16:05:55;;;;;;;13.00;10.40;;;;;;;1.05;91.48;98624.48;217774;1257;128202;-69
2023/02/03 16:11:19;;;;;;;12.60;8.80;;;;;;;1.07;91.72;98630.50;217417;1260;140062;-73
2023/02/03 16:16:37;;;;;;;14.10;8.10;;;;;;;1.10;91.90;98634.98;217916;1257;140102;-70
2023/02/03 16:21:52;;;;;;;13.20;7.50;;;;;;;1.15;92.12;98640.89;217657;1257;139682;-73
2023/02/03 16:27:29;;;;;;;16.20;8.00;;;;;;;1.20;92.21;98643.33;217843;1257;139701;-71
2023/02/03 16:55:22;;;;;;;18.20;14.30;;;;;;;1.51;92.43;98662.10;218095;1256;141196;-69
2023/02/03 17:00:32;;;;;;;15.90;8.60;;;;;;;1.55;92.62;98665.96;217715;1258;140612;-67
2023/02/03 17:05:42;;;;;;;12.80;7.80;;;;;;;1.57;92.67;98672.30;217887;1257;140701;-69
2023/02/03 17:10:48;;;;;;;21.70;9.10;;;;;;;1.59;92.74;98681.64;218558;1257;140156;-62
2023/02/03 17:15:58;;;;;;;14.90;5.80;;;;;;;1.61;92.54;98685.12;217607;1259;139593;-67
2023/02/03 17:21:10;;;;;;;17.10;7.40;;;;;;;1.65;92.89;98691.63;219007;1255;140247;-71
2023/02/03 17:26:19;;;;;;;26.60;8.90;;;;;;;1.66;92.80;98702.41;217702;1257;140318;-67
2023/02/03 17:31:28;;;;;;;15.00;5.60;;;;;;;1.70;92.72;98703.39;218434;1256;140621;-68
2023/02/03 17:36:39;;;;;;;18.30;5.00;;;;;;;1.71;92.77;98709.90;219062;1257;140696;-68
2023/02/03 17:41:58;;;;;;;17.00;4.90;;;;;;;1.72;92.90;98714.66;218181;1257;141157;-69
2023/02/03 17:47:23;;;;;;;15.30;5.60;;;;;;;1.73;92.92;98721.09;218678;1256;140108;-72
2023/02/03 17:52:47;;;;;;;14.50;5.90;;;;;;;1.76;92.80;98728.41;217880;1257;141859;-71
2023/02/03 17:58:13;;;;;;;19.00;7.90;;;;;;;1.78;93.13;98736.54;218923;1256;225702;-67
2023/02/03 18:03:18;;;;;;;16.60;4.20;;;;;;;1.79;92.93;98747.77;219687;1257;139797;-69
2023/02/03 18:08:25;;;;;;;;;;;;;;;1.81;93.13;98756.39;219763;1257;141254;-67
2023/02/03 18:13:32;;;;;;;9.30;2.90;;;;;;;1.83;93.18;98766.81;220843;1257;127195;-67
2023/02/03 18:18:37;;;;;;;14.90;4.30;;;;;;;1.88;93.18;98773.30;218910;1259;139659;-67
2023/02/03 18:23:42;;;;;;;22.60;4.50;;;;;;;1.93;92.72;98776.17;218012;1257;140299;-71
2023/02/03 18:28:52;;;;;;;36.20;17.50;;;;;;;1.93;92.92;98782.41;217988;1255;139636;-69
2023/02/03 18:34:02;;;;;;;34.30;22.60;;;;;;;1.93;92.99;98781.43;217524;1256;140634;-68
2023/02/03 18:39:09;;;;;;;11.60;5.50;;;;;;;1.92;92.86;98784.23;218241;1257;140526;-68
2023/02/03 18:44:16;;;;;;;23.50;10.40;;;;;;;1.94;92.95;98797.45;217638;1256;140120;-67
2023/02/03 18:49:23;;;;;;;13.50;7.80;;;;;;;1.95;92.80;98808.86;217600;1259;139702;-65
2023/02/03 18:54:28;;;;;;;14.40;6.20;;;;;;;1.94;92.81;98811.56;217690;1259;139343;-63
2023/02/03 18:59:34;;;;;;;7.90;5.60;;;;;;;1.94;93.00;98816.27;218031;1257;139625;-66
2023/02/03 19:04:38;;;;;;;19.50;6.40;;;;;;;1.95;92.87;98813.79;217610;1257;140197;-68
2023/02/03 19:09:43;;;;;;;15.60;8.60;;;;;;;1.95;92.91;98819.13;217254;1257;139515;-67
2023/02/03 19:14:50;;;;;;;14.20;5.20;;;;;;;1.98;92.92;98812.63;218644;1255;141235;-68
2023/02/03 19:19:57;;;;;;;16.40;11.00;;;;;;;1.98;92.73;98812.62;217449;1257;141152;-68
2023/02/03 19:25:02;;;;;;;15.80;8.70;;;;;;;1.96;92.83;98809.91;218777;1257;140202;-68
2023/02/03 19:30:11;;;;;;;7.80;6.60;;;;;;;1.97;92.80;98821.76;217354;1257;140414;-69
2023/02/03 19:35:17;;;;;;;14.30;5.80;;;;;;;1.98;93.03;98816.98;217781;1257;139599;-69
2023/02/03 19:40:22;;;;;;;11.30;5.60;;;;;;;1.99;93.22;98815.81;220009;1257;140404;-69
2023/02/03 19:45:30;;;;;;;14.30;5.00;;;;;;;2.01;93.01;98816.70;218749;1259;140110;-69
2023/02/03 19:50:37;;;;;;;9.70;5.00;;;;;;;2.04;93.17;98808.66;220532;1257;139713;-68
2023/02/03 19:55:45;;;;;;;7.80;5.10;;;;;;;2.07;93.02;98808.19;219459;1259;140654;-69
2023/02/03 20:00:52;;;;;;;15.20;6.70;;;;;;;2.12;93.22;98813.40;217697;1257;140568;-69
2023/02/03 20:05:56;;;;;;;6.30;4.70;;;;;;;2.15;92.93;98816.29;217933;1255;140771;-68
2023/02/03 20:11:06;;;;;;;13.10;5.40;;;;;;;2.17;92.89;98822.59;219450;1257;139962;-69
2023/02/03 20:16:11;;;;;;;10.30;5.40;;;;;;;2.19;93.07;98826.36;217991;1257;141384;-69
2023/02/03 20:21:15;;;;;;;16.10;6.50;;;;;;;2.19;93.09;98830.73;217509;1257;141078;-68
2023/02/03 20:26:21;;;;;;;14.00;6.30;;;;;;;2.20;92.84;98839.83;217513;1259;138952;-68
2023/02/03 20:31:26;;;;;;;12.80;3.70;;;;;;;2.18;93.04;98846.42;217653;1257;140189;-67
2023/02/03 20:36:31;;;;;;;12.70;4.80;;;;;;;2.20;92.73;98843.02;218263;1257;140355;-67
2023/02/03 20:41:38;;;;;;;15.00;4.50;;;;;;;2.24;92.88;98843.67;218050;1257;140453;-66
2023/02/03 20:46:45;;;;;;;6.90;3.50;;;;;;;2.26;93.06;98840.72;219191;1257;140751;-65
2023/02/03 20:51:52;;;;;;;7.70;3.80;;;;;;;2.27;92.86;98846.15;218660;1259;141717;-65
2023/02/03 20:56:57;;;;;;;9.50;3.30;;;;;;;2.26;92.88;98850.91;218097;1259;140404;-66
2023/02/03 21:02:17;;;;;;;10.40;4.00;;;;;;;2.29;93.10;98853.59;217997;1257;139637;-66
2023/02/03 21:07:25;;;;;;;4.30;3.10;;;;;;;2.29;92.51;98852.90;217866;1259;139441;-65
2023/02/03 21:12:32;;;;;;;6.70;3.60;;;;;;;2.26;92.78;98851.61;218093;1257;140981;-66
2023/02/03 21:17:38;;;;;;;9.10;3.30;;;;;;;2.26;92.83;98846.80;217688;1256;139724;-65
2023/02/03 21:22:43;;;;;;;9.00;6.10;;;;;;;2.26;92.80;98849.58;218393;1255;139184;-65
2023/02/03 21:27:50;;;;;;;6.30;2.60;;;;;;;2.24;92.45;98853.27;218264;1256;141035;-68
2023/02/03 21:32:57;;;;;;;6.50;3.30;;;;;;;2.24;92.64;98855.81;218125;1259;222080;-68
2023/02/03 21:38:31;;;;;;;4.70;2.30;;;;;;;2.23;92.44;98857.88;220218;1257;140098;-66
2023/02/03 21:43:35;;;;;;;2.40;2.00;;;;;;;2.21;92.45;98861.48;218201;1259;140536;-65
2023/02/03 21:48:43;;;;;;;3.20;2.20;;;;;;;2.22;92.23;98870.34;220320;1257;140881;-66
2023/02/03 21:53:59;;;;;;;6.50;2.50;;;;;;;2.22;92.32;98861.89;219317;1257;139560;-66
2023/02/03 21:59:17;;;;;;;5.50;1.50;;;;;;;2.21;92.05;98866.73;219344;1257;140036;-66
2023/02/03 22:04:27;;;;;;;3.40;2.40;;;;;;;2.23;92.31;98869.56;218215;1259;140313;-66
2023/02/03 22:09:31;;;;;;;7.30;3.40;;;;;;;2.23;91.98;98870.66;219076;1257;140293;-68
2023/02/03 22:14:36;;;;;;;4.30;2.40;;;;;;;2.25;91.92;98867.70;218880;1257;139147;-68
2023/02/03 22:19:41;;;;;;;4.70;2.60;;;;;;;2.29;92.17;98865.82;218328;1259;140088;-67
2023/02/03 22:24:45;;;;;;;4.40;3.20;;;;;;;2.36;92.28;98865.41;218777;1259;138960;-67
2023/02/03 22:29:55;;;;;;;6.00;3.70;;;;;;;2.41;92.23;98857.11;217858;1259;145606;-67
2023/02/03 22:34:59;;;;;;;5.60;2.70;;;;;;;2.45;92.41;98852.36;217904;1257;244568;-67
2023/02/03 22:40:04;;;;;;;11.50;5.00;;;;;;;2.46;92.08;98850.09;217591;1257;139385;-68
2023/02/03 22:45:09;;;;;;;7.40;4.90;;;;;;;2.48;92.38;98846.45;218350;1257;139575;-65
2023/02/03 22:50:14;;;;;;;6.60;4.50;;;;;;;2.49;91.97;98843.98;217750;1260;139940;-66
2023/02/03 22:55:23;;;;;;;7.80;4.00;;;;;;;2.48;92.00;98845.76;218656;1256;141185;-62
2023/02/03 23:00:28;;;;;;;5.50;3.80;;;;;;;2.46;92.04;98854.10;217852;1259;139466;-63
2023/02/03 23:05:34;;;;;;;7.30;4.00;;;;;;;2.45;91.94;98864.27;217945;1257;139435;-64
2023/02/03 23:10:38;;;;;;;7.20;4.70;;;;;;;2.43;91.89;98868.73;218075;1258;139359;-65
2023/02/03 23:15:43;;;;;;;3.40;3.00;;;;;;;2.42;92.25;98871.24;218470;1257;139636;-64
2023/02/03 23:20:47;;;;;;;7.00;3.50;;;;;;;2.37;92.08;98876.21;218502;1257;141820;-66
2023/02/03 23:25:52;;;;;;;4.90;3.60;;;;;;;2.33;92.09;98877.74;218682;1259;140865;-67
2023/02/03 23:30:56;;;;;;;4.10;3.40;;;;;;;2.27;91.71;98879.12;219266;1257;140125;-69
2023/02/03 23:36:00;;;;;;;4.20;3.20;;;;;;;2.16;91.29;98883.88;219119;1258;140495;-69
2023/02/03 23:41:04;;;;;;;6.10;3.20;;;;;;;2.09;91.45;98891.09;218760;1259;139590;-68
2023/02/03 23:46:10;;;;;;;5.30;3.10;;;;;;;1.98;91.07;98902.59;220374;1257;139628;-69
2023/02/03 23:51:15;;;;;;;4.80;4.20;;;;;;;1.79;90.61;98920.78;220396;1256;140180;-71
2023/02/03 23:56:20;;;;;;;6.50;5.10;;;;;;;1.60;90.01;98939.35;218152;1257;138960;-71
